createdAt,value
2018-04-09T00:00:59.315Z,10.80
2018-04-09T00:03:25.846Z,10.47
2018-04-09T00:05:52.232Z,15.53
2018-04-09T00:08:18.639Z,14.00
2018-04-09T00:10:45.764Z,12.53
2018-04-09T00:13:12.197Z,13.27
2018-04-09T00:15:39.398Z,9.67
2018-04-09T00:18:05.937Z,9.30
2018-04-09T00:20:32.395Z,12.47
2018-04-09T00:22:58.814Z,8.20
2018-04-09T00:25:25.234Z,13.27
2018-04-09T00:27:51.636Z,15.00
2018-04-09T00:30:18.075Z,9.20
2018-04-09T00:32:44.490Z,16.10
2018-04-09T00:35:10.947Z,12.87
2018-04-09T00:37:38.123Z,16.30
2018-04-09T00:40:05.126Z,11.97
2018-04-09T00:42:31.522Z,16.67
2018-04-09T00:44:57.940Z,11.33
2018-04-09T00:47:25.310Z,18.60
2018-04-09T00:49:52.533Z,15.07
2018-04-09T00:52:18.961Z,11.97
2018-04-09T00:54:45.381Z,11.00
2018-04-09T00:57:11.795Z,11.27
2018-04-09T00:59:38.961Z,14.83
2018-04-09T01:02:06.180Z,17.30
2018-04-09T01:04:32.671Z,10.70
2018-04-09T01:06:59.811Z,9.90
2018-04-09T01:09:26.192Z,9.43
2018-04-09T01:11:52.620Z,14.30
2018-04-09T01:14:19.749Z,15.27
2018-04-09T01:16:47.750Z,11.80
2018-04-09T01:19:14.875Z,10.30
2018-04-09T01:21:41.305Z,20.40
2018-04-09T01:24:07.697Z,17.63
2018-04-09T01:26:34.841Z,11.20
2018-04-09T01:29:01.246Z,12.70
2018-04-09T01:31:28.535Z,11.77
2018-04-09T01:33:54.972Z,12.60
2018-04-09T01:36:21.410Z,11.00
2018-04-09T01:38:47.886Z,15.50
2018-04-09T01:41:14.303Z,11.20
2018-04-09T01:43:40.719Z,11.37
2018-04-09T01:46:07.210Z,18.63
2018-04-09T01:48:33.717Z,10.73
2018-04-09T01:51:00.172Z,12.47
2018-04-09T01:53:26.553Z,9.97
2018-04-09T01:55:53.722Z,15.80
2018-04-09T01:58:20.871Z,16.27
2018-04-09T02:00:48.030Z,14.00
2018-04-09T02:03:15.182Z,15.90
2018-04-09T02:05:41.575Z,12.20
2018-04-09T02:08:08.006Z,11.77
2018-04-09T02:10:34.440Z,14.67
2018-04-09T02:13:00.899Z,12.00
2018-04-09T02:15:27.314Z,10.03
2018-04-09T02:17:54.984Z,13.87
2018-04-09T02:20:21.493Z,8.60
2018-04-09T02:22:48.076Z,12.53
2018-04-09T02:25:15.214Z,15.10
2018-04-09T02:27:41.637Z,16.20
2018-04-09T02:30:08.185Z,24.33
2018-04-09T02:32:34.708Z,10.07
2018-04-09T02:35:01.106Z,17.40
2018-04-09T02:37:27.570Z,9.40
2018-04-09T02:39:54.080Z,13.70
2018-04-09T02:42:20.648Z,12.37
2018-04-09T02:44:47.093Z,13.47
2018-04-09T02:47:14.309Z,11.17
2018-04-09T02:49:40.809Z,11.00
2018-04-09T02:52:07.274Z,15.30
2018-04-09T02:54:33.860Z,14.23
2018-04-09T02:57:00.410Z,15.43
2018-04-09T02:59:27.590Z,11.67
2018-04-09T03:01:54.837Z,17.00
2018-04-09T03:04:21.305Z,15.93
2018-04-09T03:06:47.864Z,17.23
2018-04-09T03:09:14.300Z,17.87
2018-04-09T03:11:40.822Z,14.67
2018-04-09T03:14:07.303Z,16.77
2018-04-09T03:16:33.734Z,14.97
2018-04-09T03:19:00.938Z,15.60
2018-04-09T03:21:28.235Z,15.93
2018-04-09T03:23:55.628Z,21.60
2018-04-09T03:26:22.331Z,18.30
2018-04-09T03:28:48.780Z,17.10
2018-04-09T03:31:15.307Z,18.33
2018-04-09T03:33:41.930Z,15.17
2018-04-09T03:36:08.376Z,21.43
2018-04-09T03:38:34.843Z,21.20
2018-04-09T03:41:01.227Z,36.97
2018-04-09T03:43:27.731Z,20.90
2018-04-09T03:45:54.911Z,19.20
2018-04-09T03:48:21.373Z,19.97
2018-04-09T03:50:47.778Z,27.20
2018-04-09T03:53:14.203Z,22.10
2018-04-09T03:55:40.713Z,17.10
2018-04-09T03:58:07.850Z,15.50
2018-04-09T04:00:35.025Z,17.70
2018-04-09T04:03:01.418Z,25.47
2018-04-09T04:05:29.732Z,25.50
2018-04-09T04:07:57.735Z,19.40
2018-04-09T04:10:24.957Z,27.13
2018-04-09T04:12:51.369Z,19.97
2018-04-09T04:15:17.890Z,23.10
2018-04-09T04:17:57.524Z,23.73
2018-04-09T04:20:37.231Z,26.00
2018-04-09T04:23:03.877Z,18.97
2018-04-09T04:25:30.440Z,17.97
2018-04-09T04:27:56.982Z,23.17
2018-04-09T04:30:26.086Z,18.73
2018-04-09T04:32:53.503Z,32.43
2018-04-09T04:35:20.679Z,16.37
2018-04-09T04:37:47.296Z,41.27
2018-04-09T04:40:15.074Z,19.40
2018-04-09T04:42:41.970Z,21.27
2018-04-09T04:45:09.707Z,22.80
2018-04-09T04:47:37.103Z,28.73
2018-04-09T04:50:04.460Z,18.90
2018-04-09T04:52:31.288Z,27.33
2018-04-09T04:54:58.554Z,34.33
2018-04-09T04:57:26.289Z,21.60
2018-04-09T04:59:52.746Z,20.17
2018-04-09T05:02:20.120Z,21.77
2018-04-09T05:04:46.630Z,25.80
2018-04-09T05:07:15.995Z,20.20
2018-04-09T05:09:43.486Z,23.60
2018-04-09T05:12:11.203Z,26.87
2018-04-09T05:14:39.564Z,31.03
2018-04-09T05:17:06.084Z,24.27
2018-04-09T05:19:32.715Z,24.40
2018-04-09T05:22:01.182Z,24.00
2018-04-09T05:24:27.692Z,23.23
2018-04-09T05:26:57.078Z,24.53
2018-04-09T05:29:23.560Z,23.53
2018-04-09T05:31:50.575Z,22.50
2018-04-09T05:34:17.179Z,25.53
2018-04-09T05:36:43.730Z,33.70
2018-04-09T05:39:10.202Z,35.63
2018-04-09T05:41:36.789Z,26.90
2018-04-09T05:44:04.087Z,28.80
2018-04-09T05:46:31.950Z,36.80
2018-04-09T05:48:59.205Z,39.13
2018-04-09T05:51:26.397Z,34.37
2018-04-09T05:53:52.921Z,33.87
2018-04-09T05:56:20.297Z,39.80
2018-04-09T05:58:46.869Z,33.40
2018-04-09T06:01:13.521Z,33.70
2018-04-09T06:03:40.666Z,36.20
2018-04-09T06:06:09.814Z,39.70
2018-04-09T06:08:38.692Z,36.03
2018-04-09T06:11:05.929Z,35.83
2018-04-09T06:13:33.165Z,52.53
2018-04-09T06:15:59.846Z,41.50
2018-04-09T06:18:27.160Z,45.83
2018-04-09T06:20:53.803Z,50.83
2018-04-09T06:23:20.282Z,51.23
2018-04-09T06:25:46.760Z,52.73
2018-04-09T06:28:13.393Z,44.13
2018-04-09T06:30:40.609Z,54.83
2018-04-09T06:33:07.174Z,54.13
2018-04-09T06:35:33.672Z,61.73
2018-04-09T06:38:00.166Z,60.93
2018-04-09T06:40:27.461Z,66.70
2018-04-09T06:42:54.208Z,70.63
2018-04-09T06:45:20.803Z,70.93
2018-04-09T06:47:47.282Z,73.23
2018-04-09T06:50:14.375Z,90.63
2018-04-09T06:52:41.641Z,76.07
2018-04-09T06:55:08.906Z,79.13
2018-04-09T06:57:36.173Z,84.33
2018-04-09T07:00:02.659Z,71.63
2018-04-09T07:02:29.896Z,89.13
2018-04-09T07:04:56.449Z,84.50
2018-04-09T07:07:30.032Z,86.57
2018-04-09T07:09:56.520Z,88.77
2018-04-09T07:12:22.974Z,86.07
2018-04-09T07:14:50.090Z,87.50
2018-04-09T07:17:16.533Z,87.50
2018-04-09T07:19:43.603Z,74.83
2018-04-09T07:22:10.853Z,84.57
2018-04-09T07:24:38.519Z,92.70
2018-04-09T07:27:04.950Z,81.17
2018-04-09T07:29:32.252Z,78.60
2018-04-09T07:31:58.771Z,84.73
2018-04-09T07:34:26.015Z,85.90
2018-04-09T07:36:52.488Z,79.57
2018-04-09T07:39:19.790Z,79.00
2018-04-09T07:41:46.284Z,78.07
2018-04-09T07:44:14.502Z,83.47
2018-04-09T07:46:41.059Z,82.57
2018-04-09T07:49:07.527Z,77.77
2018-04-09T07:51:34.598Z,81.67
2018-04-09T07:54:01.069Z,91.90
2018-04-09T07:56:29.405Z,85.10
2018-04-09T07:58:56.115Z,81.53
2018-04-09T08:01:22.735Z,78.60
2018-04-09T08:03:49.139Z,86.23
2018-04-09T08:06:16.718Z,78.90
2018-04-09T08:08:43.178Z,74.70
2018-04-09T08:11:09.645Z,71.33
2018-04-09T08:13:36.101Z,101.50
2018-04-09T08:16:02.610Z,75.20
2018-04-09T08:18:29.038Z,77.67
2018-04-09T08:20:56.136Z,79.10
2018-04-09T08:23:22.552Z,81.47
2018-04-09T08:25:49.198Z,79.23
2018-04-09T08:28:15.753Z,79.10
2018-04-09T08:30:42.309Z,87.73
2018-04-09T08:33:08.799Z,81.23
2018-04-09T08:35:35.379Z,79.43
2018-04-09T08:38:03.119Z,79.37
2018-04-09T08:40:29.737Z,73.70
2018-04-09T08:42:56.263Z,79.87
2018-04-09T08:45:23.694Z,72.00
2018-04-09T08:47:50.300Z,79.60
2018-04-09T08:50:16.852Z,79.53
2018-04-09T08:52:43.515Z,69.63
2018-04-09T08:55:10.047Z,78.60
2018-04-09T08:57:36.722Z,78.43
2018-04-09T09:00:04.133Z,77.77
2018-04-09T09:02:30.798Z,83.40
2018-04-09T09:04:57.394Z,79.33
2018-04-09T09:07:24.014Z,84.47
2018-04-09T09:09:52.248Z,77.53
2018-04-09T09:12:18.822Z,84.93
2018-04-09T09:14:45.427Z,76.90
2018-04-09T09:17:13.107Z,74.13
2018-04-09T09:19:41.240Z,78.77
2018-04-09T09:22:07.876Z,77.90
2018-04-09T09:24:35.141Z,83.87
2018-04-09T09:27:01.972Z,77.00
2018-04-09T09:29:30.084Z,82.97
2018-04-09T09:31:58.372Z,86.63
2018-04-09T09:34:24.917Z,83.97
2018-04-09T09:36:51.470Z,85.50
2018-04-09T09:39:18.648Z,78.07
2018-04-09T09:41:46.212Z,82.17
2018-04-09T09:44:13.326Z,76.23
2018-04-09T09:46:41.170Z,83.00
2018-04-09T09:49:08.677Z,77.53
2018-04-09T09:51:37.039Z,80.33
2018-04-09T09:54:04.270Z,71.73
2018-04-09T09:56:30.779Z,74.90
2018-04-09T09:58:57.285Z,69.70
2018-04-09T10:01:26.744Z,70.13
2018-04-09T10:03:54.056Z,78.33
2018-04-09T10:06:20.575Z,82.97
2018-04-09T10:08:47.106Z,72.47
2018-04-09T10:11:13.662Z,76.80
2018-04-09T10:13:41.152Z,84.03
2018-04-09T10:16:07.590Z,77.27
2018-04-09T10:18:34.233Z,83.43
2018-04-09T10:21:00.739Z,78.40
2018-04-09T10:23:27.483Z,71.10
2018-04-09T10:25:53.996Z,73.83
2018-04-09T10:28:21.323Z,72.83
2018-04-09T10:30:48.671Z,77.30
2018-04-09T10:33:17.660Z,73.13
2018-04-09T10:35:44.378Z,80.87
2018-04-09T10:38:10.874Z,80.10
2018-04-09T10:40:38.779Z,80.20
2018-04-09T10:43:05.298Z,73.00
2018-04-09T10:45:31.926Z,69.73
2018-04-09T10:47:59.766Z,85.07
2018-04-09T10:50:26.278Z,80.77
2018-04-09T10:52:53.614Z,72.97
2018-04-09T10:55:20.107Z,76.07
2018-04-09T10:57:46.554Z,81.50
2018-04-09T11:00:14.274Z,69.87
2018-04-09T11:02:40.773Z,78.53
2018-04-09T11:05:07.512Z,71.23
2018-04-09T11:07:34.193Z,72.30
2018-04-09T11:10:00.644Z,75.77
2018-04-09T11:12:27.162Z,75.17
2018-04-09T11:14:54.526Z,76.30
2018-04-09T11:17:21.044Z,75.87
2018-04-09T11:19:47.701Z,76.50
2018-04-09T11:22:15.133Z,80.87
2018-04-09T11:24:42.508Z,74.97
2018-04-09T11:27:10.486Z,77.23
2018-04-09T11:29:38.774Z,79.77
2018-04-09T11:32:06.003Z,72.37
2018-04-09T11:34:32.482Z,72.50
2018-04-09T11:36:59.029Z,80.67
2018-04-09T11:39:26.497Z,76.50
2018-04-09T11:41:53.016Z,71.27
2018-04-09T11:44:19.839Z,67.67
2018-04-09T11:46:46.465Z,74.20
2018-04-09T11:49:13.606Z,70.57
2018-04-09T11:51:40.106Z,72.77
2018-04-09T11:54:07.293Z,72.60
2018-04-09T11:56:34.602Z,76.73
2018-04-09T11:59:01.886Z,73.47
2018-04-09T12:01:28.464Z,60.70
2018-04-09T12:03:56.618Z,77.83
2018-04-09T12:06:23.901Z,89.07
2018-04-09T12:08:50.396Z,61.00
2018-04-09T12:11:17.620Z,77.80
2018-04-09T12:13:44.520Z,71.57
2018-04-09T12:16:11.038Z,76.20
2018-04-09T12:18:39.289Z,75.10
2018-04-09T12:21:05.785Z,80.90
2018-04-09T12:23:32.248Z,67.90
2018-04-09T12:25:59.449Z,66.13
2018-04-09T12:28:26.680Z,67.33
2018-04-09T12:30:53.185Z,70.90
2018-04-09T12:33:19.745Z,71.77
2018-04-09T12:35:46.222Z,72.43
2018-04-09T12:38:12.712Z,69.93
2018-04-09T12:40:39.149Z,66.23
2018-04-09T12:43:06.442Z,72.10
2018-04-09T12:45:33.148Z,74.70
2018-04-09T12:48:00.150Z,81.60
2018-04-09T12:50:26.645Z,69.87
2018-04-09T12:52:54.666Z,70.47
2018-04-09T12:55:22.778Z,78.80
2018-04-09T12:57:49.249Z,67.00
2018-04-09T13:00:15.877Z,80.83
2018-04-09T13:02:42.840Z,69.03
2018-04-09T13:05:10.090Z,71.93
2018-04-09T13:07:36.639Z,75.47
2018-04-09T13:10:04.975Z,73.63
2018-04-09T13:12:31.983Z,75.33
2018-04-09T13:14:59.146Z,71.93
2018-04-09T13:17:25.668Z,79.47
2018-04-09T13:19:53.739Z,77.73
2018-04-09T13:22:21.739Z,73.93
2018-04-09T15:01:45.505Z,69.73
2018-04-09T15:04:12.328Z,62.67
2018-04-09T15:06:42.384Z,66.70
2018-04-09T15:09:08.982Z,73.43
2018-04-09T15:11:36.241Z,77.93
2018-04-09T15:14:03.101Z,64.30
2018-04-09T15:16:30.902Z,65.43
2018-04-09T15:19:00.391Z,66.20
2018-04-09T15:21:28.003Z,70.33
2018-04-09T15:23:54.594Z,65.53
2018-04-09T15:26:21.454Z,62.47
2018-04-09T15:28:48.800Z,76.33
2018-04-09T15:31:15.419Z,69.30
2018-04-09T15:33:41.996Z,69.70
2018-04-09T15:36:09.274Z,63.53
2018-04-09T15:38:36.032Z,70.30
2018-04-09T15:41:03.388Z,64.93
2018-04-09T15:43:30.013Z,65.43
2018-04-09T15:45:56.652Z,61.53
2018-04-09T15:48:23.218Z,62.83
2018-04-09T15:50:50.093Z,59.50
2018-04-09T15:53:17.464Z,66.23
2018-04-09T15:55:43.969Z,65.80
2018-04-09T15:58:10.521Z,67.07
2018-04-09T16:00:37.262Z,62.13
2018-04-09T16:03:03.839Z,68.93
2018-04-09T16:05:31.179Z,70.00
2018-04-09T16:07:57.715Z,63.33
2018-04-09T16:10:24.318Z,60.67
2018-04-09T16:12:51.649Z,73.23
2018-04-09T16:15:18.128Z,72.70
2018-04-09T16:17:56.896Z,70.60
2018-04-09T16:20:24.111Z,61.13
2018-04-09T16:22:50.655Z,60.63
2018-04-09T16:25:17.153Z,59.10
2018-04-09T16:27:43.655Z,63.60
2018-04-09T16:30:10.774Z,69.07
2018-04-09T16:32:37.309Z,61.57
2018-04-09T16:35:04.525Z,67.00
2018-04-09T16:37:33.408Z,71.40
2018-04-09T16:39:59.977Z,71.93
2018-04-09T16:42:26.534Z,63.67
2018-04-09T16:44:53.907Z,64.63
2018-04-09T16:47:22.207Z,62.73
2018-04-09T16:49:49.864Z,59.57
2018-04-09T16:52:16.457Z,65.73
2018-04-09T16:54:44.289Z,65.67
2018-04-09T16:57:10.740Z,65.53
2018-04-09T16:59:38.597Z,63.03
2018-04-09T17:04:48.149Z,66.93
2018-04-09T17:07:15.494Z,72.50
2018-04-09T17:09:42.772Z,71.90
2018-04-09T17:12:10.288Z,69.80
2018-04-09T17:14:36.822Z,65.70
2018-04-09T17:17:03.424Z,74.37
2018-04-09T17:19:29.956Z,79.60
2018-04-09T17:21:56.966Z,76.57
2018-04-09T17:24:23.701Z,71.77
2018-04-09T17:26:50.969Z,81.57
2018-04-09T17:29:17.500Z,71.37
2018-04-09T17:31:44.021Z,76.43
2018-04-09T17:34:11.349Z,74.53
2018-04-09T17:36:37.987Z,72.47
2018-04-09T17:39:05.263Z,81.17
2018-04-09T17:41:32.050Z,71.00
2018-04-09T17:43:58.549Z,74.70
2018-04-09T17:46:25.836Z,78.37
2018-04-09T17:48:54.116Z,77.47
2018-04-09T17:51:21.530Z,83.47
2018-04-09T17:53:48.142Z,80.37
2018-04-09T17:56:15.380Z,76.13
2018-04-09T17:58:41.920Z,74.43
2018-04-09T18:01:08.570Z,83.30
2018-04-09T18:03:38.222Z,81.97
2018-04-09T18:06:05.660Z,74.67
2018-04-09T18:08:32.254Z,76.50
2018-04-09T18:10:59.588Z,79.30
2018-04-09T18:13:26.134Z,84.67
2018-04-09T18:15:52.901Z,71.93
2018-04-09T18:18:21.082Z,83.10
2018-04-09T18:20:48.087Z,91.30
2018-04-09T18:23:15.816Z,91.93
2018-04-09T18:25:43.968Z,82.43
2018-04-09T18:28:10.784Z,85.93
2018-04-09T18:30:38.231Z,94.67
2018-04-09T18:33:05.865Z,90.33
2018-04-09T18:35:32.556Z,91.87
2018-04-09T18:37:59.883Z,93.43
2018-04-09T18:40:26.590Z,99.73
2018-04-09T18:42:53.981Z,86.83
2018-04-09T18:45:21.289Z,84.13
2018-04-09T18:47:47.730Z,84.47
2018-04-09T18:50:14.221Z,89.30
2018-04-09T18:52:41.412Z,79.53
2018-04-09T18:55:07.885Z,89.00
2018-04-09T18:57:34.580Z,80.90
2018-04-09T19:00:01.096Z,89.40
2018-04-09T19:02:27.697Z,87.43
2018-04-09T19:04:54.150Z,81.80
2018-04-09T19:07:20.551Z,86.17
2018-04-09T19:09:47.762Z,95.57
2018-04-09T19:12:14.197Z,91.77
2018-04-09T19:14:40.716Z,83.33
2018-04-09T19:17:07.915Z,90.77
2018-04-09T19:19:34.363Z,104.57
2018-04-09T19:22:00.839Z,104.10
2018-04-09T19:24:27.291Z,83.67
2018-04-09T19:26:54.506Z,80.43
2018-04-09T19:29:20.937Z,101.93
2018-04-09T19:31:47.358Z,87.27
2018-04-09T19:34:14.598Z,106.60
2018-04-09T19:39:52.792Z,100.80
2018-04-09T19:42:19.897Z,99.97
2018-04-09T19:44:46.312Z,105.67
2018-04-09T19:47:12.681Z,106.80
2018-04-09T19:49:39.029Z,110.87
2018-04-09T19:52:05.393Z,104.43
2018-04-09T19:54:32.149Z,97.17
2018-04-09T19:56:59.261Z,102.27
2018-04-09T19:59:25.646Z,109.67
2018-04-09T20:01:52.021Z,117.23
2018-04-09T20:04:19.095Z,121.10
2018-04-09T20:06:46.230Z,112.63
2018-04-09T20:09:13.317Z,108.73
2018-04-09T20:11:40.421Z,116.77
2018-04-09T20:14:06.753Z,121.53
2018-04-09T20:16:33.382Z,102.43
2018-04-09T20:19:00.709Z,105.77
2018-04-09T20:21:27.112Z,102.97
2018-04-09T20:23:53.433Z,104.90
2018-04-09T20:26:20.501Z,102.77
2018-04-09T20:28:46.853Z,102.83
2018-04-09T20:31:13.275Z,94.70
2018-04-09T20:33:39.613Z,99.13
2018-04-09T20:36:06.719Z,101.37
2018-04-09T20:38:33.081Z,107.53
2018-04-09T20:40:59.440Z,112.33
2018-04-09T20:43:25.788Z,110.53
2018-04-09T20:45:52.866Z,97.00
2018-04-09T20:48:19.238Z,100.17
2018-04-09T20:50:45.594Z,91.20
2018-04-09T20:53:12.550Z,91.67
2018-04-09T20:55:38.906Z,97.57
2018-04-09T20:58:05.237Z,87.70
2018-04-09T21:00:31.593Z,78.60
2018-04-09T21:02:58.729Z,73.10
2018-04-09T21:05:25.048Z,83.03
2018-04-09T21:07:51.405Z,80.57
2018-04-09T21:10:17.819Z,79.23
2018-04-09T21:12:44.889Z,68.37
2018-04-09T21:15:11.937Z,73.70
2018-04-09T21:17:38.353Z,75.10
2018-04-09T21:20:06.181Z,88.90
2018-04-09T21:22:32.597Z,68.67
2018-04-09T21:24:59.069Z,77.70
2018-04-09T21:27:25.414Z,70.27
2018-04-09T21:29:51.737Z,87.40
2018-04-09T21:32:18.070Z,79.10
2018-04-09T21:34:44.428Z,78.57
2018-04-09T21:37:10.785Z,78.87
2018-04-09T21:39:37.113Z,86.33
2018-04-09T21:42:04.860Z,87.53
2018-04-09T21:44:31.205Z,81.03
2018-04-09T21:46:58.301Z,91.53
2018-04-09T21:49:24.645Z,82.33
2018-04-09T21:51:51.014Z,80.87
2018-04-09T21:54:17.361Z,86.20
2018-04-09T21:56:43.725Z,76.37
2018-04-09T21:59:10.023Z,78.10
2018-04-09T22:01:36.356Z,82.60
2018-04-09T22:04:03.533Z,81.33
2018-04-09T22:06:29.920Z,78.37
2018-04-09T22:08:56.225Z,91.53
2018-04-09T22:11:22.573Z,88.33
2018-04-09T22:13:49.650Z,88.53
2018-04-09T22:16:15.982Z,85.77
2018-04-09T22:18:42.310Z,85.80
2018-04-09T22:21:08.643Z,77.77
2018-04-09T22:23:34.998Z,66.80
2018-04-09T22:26:01.299Z,54.50
2018-04-09T22:28:27.678Z,62.90
2018-04-09T22:30:54.000Z,72.23
2018-04-09T22:33:20.329Z,51.10
2018-04-09T22:35:46.626Z,56.37
2018-04-09T22:38:12.965Z,44.63
2018-04-09T22:40:39.293Z,62.27
2018-04-09T22:43:05.621Z,57.00
2018-04-09T22:45:31.957Z,44.73
2018-04-09T22:47:58.294Z,46.57
2018-04-09T22:50:24.650Z,40.73
2018-04-09T22:52:50.998Z,48.13
2018-04-09T22:55:17.364Z,49.10
2018-04-09T22:57:43.778Z,44.40
2018-04-09T23:00:10.168Z,54.03
2018-04-09T23:02:37.261Z,43.77
2018-04-09T23:05:03.633Z,52.27
2018-04-09T23:07:30.011Z,45.87
2018-04-09T23:09:56.354Z,56.60
2018-04-09T23:12:22.702Z,55.37
2018-04-09T23:14:49.842Z,51.33
2018-04-09T23:17:16.266Z,52.43
2018-04-09T23:19:42.846Z,61.57
2018-04-09T23:22:09.176Z,50.33
2018-04-09T23:24:36.337Z,49.77
2018-04-09T23:27:02.692Z,50.00
2018-04-09T23:29:29.090Z,48.77
2018-04-09T23:31:56.493Z,52.63
2018-04-09T23:34:22.828Z,47.67
2018-04-09T23:36:49.284Z,43.00
2018-04-09T23:39:15.696Z,57.73
2018-04-09T23:41:42.013Z,46.90
2018-04-09T23:44:08.473Z,49.40
2018-04-09T23:46:34.824Z,53.67
2018-04-09T23:49:01.197Z,56.80
2018-04-09T23:51:28.333Z,54.73
2018-04-09T23:53:54.709Z,50.63
2018-04-09T23:56:21.019Z,56.60
2018-04-09T23:58:47.376Z,51.40
